createdAt,value
2018-05-13T00:01:52.603Z,26.17
2018-05-13T00:04:21.027Z,24.50
2018-05-13T00:06:49.453Z,27.20
2018-05-13T00:09:17.923Z,25.07
2018-05-13T00:11:46.357Z,25.33
2018-05-13T00:14:14.776Z,25.00
2018-05-13T00:16:43.272Z,24.57
2018-05-13T00:19:11.707Z,26.40
2018-05-13T00:21:40.130Z,25.10
2018-05-13T00:24:08.593Z,25.40
2018-05-13T00:26:37.021Z,25.80
2018-05-13T00:29:05.450Z,25.57
2018-05-13T00:31:33.933Z,25.47
2018-05-13T00:34:02.365Z,25.27
2018-05-13T00:36:30.792Z,24.20
2018-05-13T00:38:59.253Z,22.50
2018-05-13T00:41:27.690Z,22.20
2018-05-13T00:43:56.116Z,22.90
2018-05-13T00:46:24.585Z,23.87
2018-05-13T00:48:53.026Z,26.23
2018-05-13T00:51:21.457Z,22.93
2018-05-13T00:53:49.944Z,24.33
2018-05-13T00:56:18.366Z,23.90
2018-05-13T00:58:46.797Z,24.13
2018-05-13T01:01:15.277Z,22.10
2018-05-13T01:03:43.693Z,23.50
2018-05-13T01:06:12.138Z,22.87
2018-05-13T01:08:40.598Z,23.77
2018-05-13T01:11:09.028Z,23.27
2018-05-13T01:13:37.453Z,23.83
2018-05-13T01:16:05.934Z,22.37
2018-05-13T01:18:34.379Z,23.07
2018-05-13T01:21:02.817Z,23.80
2018-05-13T01:23:31.301Z,23.87
2018-05-13T01:25:59.744Z,24.07
2018-05-13T01:28:28.160Z,23.80
2018-05-13T01:30:56.669Z,23.83
2018-05-13T01:33:27.054Z,23.53
2018-05-13T01:35:55.483Z,25.07
2018-05-13T01:38:23.957Z,25.33
2018-05-13T01:40:52.378Z,24.73
2018-05-13T01:43:20.814Z,23.73
2018-05-13T01:45:49.280Z,25.03
2018-05-13T01:48:17.720Z,24.43
2018-05-13T01:50:46.155Z,24.73
2018-05-13T01:53:14.637Z,24.90
2018-05-13T01:55:43.083Z,26.30
2018-05-13T01:58:11.524Z,25.33
2018-05-13T02:00:40.014Z,24.80
2018-05-13T02:03:08.453Z,27.43
2018-05-13T02:05:36.883Z,25.10
2018-05-13T02:08:05.373Z,26.67
2018-05-13T02:10:33.829Z,25.07
2018-05-13T02:13:02.257Z,26.37
2018-05-13T02:15:30.738Z,26.20
2018-05-13T02:17:59.169Z,24.30
2018-05-13T02:20:27.598Z,25.37
2018-05-13T02:22:56.068Z,24.43
2018-05-13T02:25:24.497Z,24.93
2018-05-13T02:27:52.928Z,26.00
2018-05-13T02:30:21.421Z,26.10
2018-05-13T02:32:49.863Z,26.17
2018-05-13T02:35:18.297Z,26.90
2018-05-13T02:37:46.800Z,26.67
2018-05-13T02:40:15.236Z,26.83
2018-05-13T02:42:43.673Z,28.13
2018-05-13T02:45:12.161Z,27.83
2018-05-13T02:47:40.601Z,27.60
2018-05-13T02:50:09.030Z,27.67
2018-05-13T02:52:37.533Z,27.03
2018-05-13T02:55:05.973Z,28.07
2018-05-13T02:57:34.415Z,27.93
2018-05-13T03:00:02.932Z,27.37
2018-05-13T03:02:31.407Z,27.80
2018-05-13T03:04:59.827Z,28.60
2018-05-13T03:07:28.296Z,27.17
2018-05-13T03:09:56.730Z,27.13
2018-05-13T03:12:25.189Z,26.90
2018-05-13T03:14:53.679Z,27.10
2018-05-13T03:17:22.101Z,28.17
2018-05-13T03:19:50.533Z,28.33
2018-05-13T03:22:19.200Z,29.80
2018-05-13T03:24:47.619Z,28.93
2018-05-13T03:27:16.051Z,28.40
2018-05-13T03:29:44.592Z,30.73
2018-05-13T03:32:13.037Z,28.30
2018-05-13T03:34:41.476Z,27.73
2018-05-13T03:37:09.964Z,29.33
2018-05-13T03:39:38.393Z,30.27
2018-05-13T03:42:06.814Z,30.03
2018-05-13T03:44:35.282Z,28.87
2018-05-13T03:47:03.700Z,29.03
2018-05-13T03:49:32.140Z,31.03
2018-05-13T03:52:00.636Z,28.70
2018-05-13T03:54:29.066Z,31.07
2018-05-13T03:56:57.485Z,30.20
2018-05-13T03:59:25.951Z,30.57
2018-05-13T04:01:54.381Z,31.20
2018-05-13T04:04:22.806Z,30.50
2018-05-13T04:06:51.300Z,31.80
2018-05-13T04:09:31.620Z,30.07
2018-05-13T04:12:11.743Z,30.70
2018-05-13T04:14:52.849Z,31.87
2018-05-13T04:17:21.766Z,30.07
2018-05-13T04:19:50.196Z,29.80
2018-05-13T04:22:18.629Z,30.50
2018-05-13T04:24:47.229Z,30.97
2018-05-13T04:27:15.661Z,32.13
2018-05-13T04:29:44.085Z,31.93
2018-05-13T04:32:12.556Z,31.23
2018-05-13T04:34:40.980Z,31.87
2018-05-13T04:37:09.416Z,32.03
2018-05-13T04:39:37.937Z,30.83
2018-05-13T04:42:06.340Z,31.47
2018-05-13T04:44:34.769Z,32.20
2018-05-13T04:47:03.248Z,29.93
2018-05-13T04:49:31.699Z,32.93
2018-05-13T04:52:00.142Z,32.03
2018-05-13T04:54:28.615Z,31.17
2018-05-13T04:56:57.068Z,31.93
2018-05-13T04:59:25.490Z,32.23
2018-05-13T05:01:53.967Z,32.27
2018-05-13T05:04:22.393Z,31.40
2018-05-13T05:06:50.820Z,31.30
2018-05-13T05:09:19.289Z,33.87
2018-05-13T05:11:47.718Z,32.60
2018-05-13T05:14:16.141Z,33.70
2018-05-13T05:16:44.620Z,31.43
2018-05-13T05:19:13.040Z,33.10
2018-05-13T05:21:41.458Z,32.03
2018-05-13T05:24:09.927Z,32.73
2018-05-13T05:26:38.383Z,32.50
2018-05-13T05:29:06.814Z,31.87
2018-05-13T05:31:35.281Z,33.17
2018-05-13T05:34:03.716Z,32.83
2018-05-13T05:36:32.145Z,32.50
2018-05-13T05:39:00.611Z,31.97
2018-05-13T05:41:29.049Z,30.77
2018-05-13T05:43:57.467Z,31.83
2018-05-13T05:46:25.929Z,30.43
2018-05-13T05:48:54.360Z,31.73
2018-05-13T05:51:22.787Z,30.23
2018-05-13T05:53:51.256Z,31.20
2018-05-13T05:56:19.690Z,30.60
2018-05-13T05:58:48.109Z,29.87
2018-05-13T06:01:16.586Z,31.80
2018-05-13T06:03:45.029Z,32.93
2018-05-13T06:06:13.464Z,31.80
2018-05-13T06:08:41.942Z,30.77
2018-05-13T06:11:10.386Z,30.70
2018-05-13T06:13:38.804Z,29.87
2018-05-13T06:16:07.284Z,30.87
2018-05-13T06:18:35.719Z,31.80
2018-05-13T06:21:04.152Z,31.03
2018-05-13T06:23:32.644Z,30.77
2018-05-13T06:26:01.069Z,31.40
2018-05-13T06:28:29.503Z,30.40
2018-05-13T06:30:57.968Z,30.53
2018-05-13T06:33:26.404Z,30.00
2018-05-13T06:35:54.841Z,31.00
2018-05-13T06:38:23.335Z,30.90
2018-05-13T06:40:51.745Z,31.83
2018-05-13T06:43:20.168Z,30.87
2018-05-13T06:45:48.671Z,28.73
2018-05-13T06:48:17.097Z,29.93
2018-05-13T06:50:45.519Z,29.33
2018-05-13T06:53:14.007Z,29.73
2018-05-13T06:55:42.436Z,29.67
2018-05-13T06:58:10.877Z,29.67
2018-05-13T07:00:39.352Z,29.70
2018-05-13T07:03:07.778Z,29.63
2018-05-13T07:05:36.208Z,29.00
2018-05-13T07:08:04.672Z,30.23
2018-05-13T07:10:33.097Z,29.13
2018-05-13T07:13:01.513Z,29.47
2018-05-13T07:15:29.976Z,30.37
2018-05-13T07:17:58.403Z,30.53
2018-05-13T07:20:26.836Z,29.93
2018-05-13T07:22:55.316Z,30.77
2018-05-13T07:25:23.756Z,29.00
2018-05-13T07:27:52.180Z,29.40
2018-05-13T07:30:20.665Z,29.47
2018-05-13T07:32:49.096Z,29.93
2018-05-13T07:35:17.514Z,28.63
2018-05-13T07:37:45.987Z,31.23
2018-05-13T07:40:14.404Z,30.20
2018-05-13T07:42:42.837Z,29.90
2018-05-13T07:45:11.300Z,29.50
2018-05-13T07:47:39.724Z,28.27
2018-05-13T07:50:08.173Z,30.83
2018-05-13T07:52:36.645Z,27.60
2018-05-13T07:55:05.094Z,28.27
2018-05-13T07:57:33.541Z,28.33
2018-05-13T08:00:02.009Z,28.47
2018-05-13T08:02:30.429Z,27.10
2018-05-13T08:04:58.852Z,26.80
2018-05-13T08:07:27.349Z,28.03
2018-05-13T08:09:55.776Z,27.53
2018-05-13T08:12:24.211Z,27.20
2018-05-13T08:14:52.672Z,29.87
2018-05-13T08:17:21.107Z,29.37
2018-05-13T08:19:49.533Z,29.80
2018-05-13T08:22:17.985Z,29.20
2018-05-13T08:24:46.440Z,27.57
2018-05-13T08:27:14.886Z,25.60
2018-05-13T08:29:43.356Z,26.73
2018-05-13T08:32:11.771Z,26.30
2018-05-13T08:34:40.188Z,25.83
2018-05-13T08:37:08.652Z,26.17
2018-05-13T08:39:37.080Z,26.73
2018-05-13T08:42:05.505Z,25.83
2018-05-13T08:44:33.982Z,26.37
2018-05-13T08:47:02.409Z,23.63
2018-05-13T08:49:30.848Z,23.90
2018-05-13T08:51:59.329Z,25.40
2018-05-13T08:54:27.752Z,23.80
2018-05-13T08:56:56.209Z,23.47
2018-05-13T08:59:24.673Z,23.60
2018-05-13T09:01:53.089Z,22.70
2018-05-13T09:04:21.533Z,22.53
2018-05-13T09:06:50.021Z,22.57
2018-05-13T09:09:18.460Z,22.10
2018-05-13T09:11:46.892Z,21.80
2018-05-13T09:14:15.444Z,22.40
2018-05-13T09:16:43.825Z,21.27
2018-05-13T09:19:12.252Z,23.17
2018-05-13T09:21:40.729Z,23.20
2018-05-13T09:24:09.164Z,22.10
2018-05-13T09:26:37.589Z,22.00
2018-05-13T09:29:06.089Z,21.70
2018-05-13T09:31:34.540Z,22.07
2018-05-13T09:34:02.979Z,21.30
2018-05-13T09:36:31.454Z,20.17
2018-05-13T09:38:59.865Z,21.70
2018-05-13T09:41:28.280Z,21.07
2018-05-13T09:43:56.753Z,21.45
2018-05-13T09:46:25.195Z,20.65
2018-05-13T09:48:53.724Z,20.60
2018-05-13T09:51:22.257Z,19.62
2018-05-13T09:53:50.683Z,19.48
2018-05-13T09:56:19.117Z,20.83
2018-05-13T09:58:47.600Z,21.58
2018-05-13T10:01:16.042Z,19.70
2018-05-13T10:03:44.473Z,20.25
2018-05-13T10:06:12.936Z,20.77
2018-05-13T10:08:41.357Z,19.17
2018-05-13T10:11:09.790Z,19.42
2018-05-13T10:13:38.277Z,18.87
2018-05-13T10:16:06.700Z,19.42
2018-05-13T10:18:35.129Z,18.85
2018-05-13T10:21:03.615Z,19.17
2018-05-13T10:23:32.041Z,18.70
2018-05-13T10:26:03.945Z,18.10
2018-05-13T10:28:32.389Z,17.85
2018-05-13T10:31:00.831Z,18.42
2018-05-13T10:33:29.297Z,18.55
2018-05-13T10:35:57.777Z,17.50
2018-05-13T10:38:26.204Z,17.83
2018-05-13T10:40:54.710Z,17.40
2018-05-13T10:43:23.149Z,17.40
2018-05-13T10:45:51.612Z,17.40
2018-05-13T10:48:20.096Z,18.08
2018-05-13T10:50:48.520Z,17.37
2018-05-13T10:53:16.956Z,17.55
2018-05-13T10:55:45.424Z,16.05
2018-05-13T10:58:13.856Z,16.30
2018-05-13T11:00:42.296Z,15.27
2018-05-13T11:03:10.801Z,16.77
2018-05-13T11:05:39.229Z,15.20
2018-05-13T11:08:07.651Z,13.32
2018-05-13T11:10:36.125Z,12.57
2018-05-13T11:13:04.556Z,13.00
2018-05-13T11:15:32.975Z,11.80
2018-05-13T11:18:01.471Z,13.35
2018-05-13T11:20:29.924Z,13.32
2018-05-13T11:22:58.345Z,13.27
2018-05-13T11:25:26.882Z,13.02
2018-05-13T11:27:55.848Z,12.75
2018-05-13T11:30:24.681Z,12.15
2018-05-13T11:32:53.154Z,11.40
2018-05-13T11:35:21.606Z,11.10
2018-05-13T11:37:50.061Z,11.70
2018-05-13T11:40:18.537Z,11.02
2018-05-13T11:42:46.982Z,11.38
2018-05-13T11:45:15.413Z,10.88
2018-05-13T11:47:43.881Z,11.23
2018-05-13T11:50:12.352Z,10.38
2018-05-13T11:52:40.797Z,10.00
2018-05-13T11:55:09.277Z,9.40
2018-05-13T11:57:38.341Z,9.30
2018-05-13T12:00:06.776Z,9.40
2018-05-13T12:02:35.246Z,9.55
2018-05-13T12:05:03.689Z,8.65
2018-05-13T12:07:32.107Z,8.38
2018-05-13T12:10:00.582Z,8.80
2018-05-13T12:12:29.021Z,11.05
2018-05-13T12:14:57.439Z,8.05
2018-05-13T12:17:25.898Z,8.90
2018-05-13T12:19:54.326Z,9.73
2018-05-13T12:22:22.741Z,9.45
2018-05-13T12:24:51.209Z,10.05
2018-05-13T12:27:19.627Z,7.40
2018-05-13T12:29:48.042Z,7.22
2018-05-13T12:32:16.497Z,6.80
2018-05-13T12:34:44.912Z,7.32
2018-05-13T12:37:13.334Z,6.65
2018-05-13T12:39:41.805Z,6.60
2018-05-13T12:42:10.244Z,7.28
2018-05-13T12:44:38.668Z,6.55
2018-05-13T12:47:07.134Z,6.60
2018-05-13T12:49:35.563Z,6.68
2018-05-13T12:52:03.989Z,6.03
2018-05-13T12:54:32.453Z,5.93
2018-05-13T12:57:00.873Z,5.65
2018-05-13T12:59:29.281Z,5.40
2018-05-13T13:01:57.737Z,4.60
2018-05-13T13:04:26.163Z,4.82
2018-05-13T13:06:54.583Z,4.85
2018-05-13T13:09:23.052Z,4.40
2018-05-13T13:11:51.477Z,4.87
2018-05-13T13:14:19.888Z,4.75
2018-05-13T13:16:48.368Z,4.47
2018-05-13T13:19:16.793Z,5.12
2018-05-13T13:21:45.231Z,4.72
2018-05-13T13:24:13.695Z,4.62
2018-05-13T13:26:42.118Z,4.70
2018-05-13T13:29:10.544Z,4.75
2018-05-13T13:31:39.046Z,4.20
2018-05-13T13:34:07.455Z,4.47
2018-05-13T13:36:35.919Z,4.00
2018-05-13T13:39:04.400Z,4.47
2018-05-13T13:41:32.825Z,4.05
2018-05-13T13:44:01.257Z,4.03
2018-05-13T13:46:29.719Z,4.12
2018-05-13T13:48:58.160Z,4.07
2018-05-13T13:51:26.572Z,4.10
2018-05-13T13:53:55.044Z,4.75
2018-05-13T13:56:23.476Z,4.43
2018-05-13T13:58:51.928Z,4.20
2018-05-13T14:01:20.401Z,4.57
2018-05-13T14:03:48.846Z,4.57
2018-05-13T14:06:17.293Z,4.70
2018-05-13T14:08:45.805Z,4.70
2018-05-13T14:11:14.235Z,4.93
2018-05-13T14:13:42.658Z,4.65
2018-05-13T14:16:11.117Z,5.18
2018-05-13T14:18:39.602Z,4.40
2018-05-13T14:21:08.014Z,5.03
2018-05-13T14:23:36.473Z,4.55
2018-05-13T14:26:04.921Z,4.87
2018-05-13T14:28:33.333Z,4.30
2018-05-13T14:31:01.807Z,5.28
2018-05-13T14:33:30.225Z,4.97
2018-05-13T14:35:58.665Z,5.30
2018-05-13T14:38:27.118Z,5.62
2018-05-13T14:40:55.637Z,5.00
2018-05-13T14:43:23.989Z,5.97
2018-05-13T14:45:52.452Z,5.62
2018-05-13T14:48:20.861Z,5.40
2018-05-13T14:50:49.272Z,5.40
2018-05-13T14:53:17.734Z,5.30
2018-05-13T14:55:46.212Z,4.93
2018-05-13T14:58:14.595Z,5.75
2018-05-13T15:00:43.060Z,5.35
2018-05-13T15:03:11.485Z,5.05
2018-05-13T15:05:39.884Z,5.62
2018-05-13T15:08:08.358Z,5.62
2018-05-13T15:10:36.761Z,5.00
2018-05-13T15:13:05.206Z,5.80
2018-05-13T15:15:33.666Z,5.53
2018-05-13T15:18:02.092Z,5.50
2018-05-13T15:20:30.544Z,5.82
2018-05-13T15:22:59.035Z,5.53
2018-05-13T15:25:27.459Z,5.82
2018-05-13T15:27:55.861Z,5.60
2018-05-13T15:30:24.313Z,5.72
2018-05-13T15:32:52.763Z,6.10
2018-05-13T15:35:21.193Z,6.25
2018-05-13T15:37:49.650Z,5.82
2018-05-13T15:40:18.073Z,6.05
2018-05-13T15:42:46.541Z,5.70
2018-05-13T15:45:14.982Z,5.80
2018-05-13T15:47:43.405Z,6.20
2018-05-13T15:50:11.813Z,6.50
2018-05-13T15:52:40.443Z,6.25
2018-05-13T15:55:08.884Z,6.50
2018-05-13T15:57:37.296Z,6.12
2018-05-13T16:00:05.801Z,6.40
2018-05-13T16:02:34.225Z,6.75
2018-05-13T16:05:02.659Z,6.30
2018-05-13T16:07:31.138Z,6.70
2018-05-13T16:09:59.553Z,5.93
2018-05-13T16:12:27.963Z,5.53
2018-05-13T16:14:56.448Z,5.55
2018-05-13T16:17:24.869Z,6.00
2018-05-13T16:19:53.307Z,6.03
2018-05-13T16:22:21.783Z,6.30
2018-05-13T16:24:50.230Z,5.95
2018-05-13T16:27:18.655Z,5.82
2018-05-13T16:29:47.110Z,6.82
2018-05-13T16:32:15.522Z,6.00
2018-05-13T16:34:43.936Z,6.60
2018-05-13T16:37:12.407Z,6.22
2018-05-13T16:39:40.829Z,5.62
2018-05-13T16:42:09.306Z,5.68
2018-05-13T16:44:37.765Z,6.15
2018-05-13T16:47:06.183Z,5.90
2018-05-13T16:49:34.603Z,5.97
2018-05-13T16:52:03.250Z,5.62
2018-05-13T16:54:31.676Z,5.72
2018-05-13T16:57:00.102Z,5.07
2018-05-13T16:59:28.800Z,5.28
2018-05-13T17:01:57.181Z,4.90
2018-05-13T17:04:25.626Z,5.57
2018-05-13T17:06:54.117Z,5.93
2018-05-13T17:09:22.567Z,4.93
2018-05-13T17:11:51.009Z,5.07
2018-05-13T17:14:19.456Z,5.20
2018-05-13T17:16:47.872Z,5.00
2018-05-13T17:19:16.281Z,4.95
2018-05-13T17:21:44.742Z,5.00
2018-05-13T17:24:13.149Z,5.05
2018-05-13T17:26:41.553Z,5.18
2018-05-13T17:29:10.011Z,5.18
2018-05-13T17:31:38.434Z,5.05
2018-05-13T17:34:07.013Z,5.15
2018-05-13T17:36:35.427Z,4.60
2018-05-13T17:39:03.901Z,4.87
2018-05-13T17:41:32.329Z,5.03
2018-05-13T17:44:00.800Z,4.72
2018-05-13T17:46:29.216Z,4.82
2018-05-13T17:48:57.868Z,4.97
2018-05-13T17:51:26.344Z,4.65
2018-05-13T17:53:54.749Z,4.30
2018-05-13T17:56:23.159Z,4.45
2018-05-13T17:58:51.624Z,4.33
2018-05-13T18:01:20.050Z,4.50
2018-05-13T18:03:48.457Z,3.93
2018-05-13T18:06:16.929Z,4.28
2018-05-13T18:08:45.358Z,4.47
2018-05-13T18:11:13.784Z,3.83
2018-05-13T18:13:42.249Z,3.73
2018-05-13T18:16:10.662Z,4.20
2018-05-13T18:18:39.153Z,3.90
2018-05-13T18:21:07.605Z,3.90
2018-05-13T18:23:36.025Z,3.60
2018-05-13T18:26:04.453Z,4.17
2018-05-13T18:28:32.924Z,3.47
2018-05-13T18:31:01.354Z,3.70
2018-05-13T18:33:29.796Z,2.77
2018-05-13T18:35:58.249Z,3.60
2018-05-13T18:38:26.693Z,3.20
2018-05-13T18:40:55.144Z,3.93
2018-05-13T18:43:23.623Z,3.60
2018-05-13T18:45:52.047Z,3.23
2018-05-13T18:48:20.465Z,2.83
2018-05-13T18:50:48.972Z,2.93
2018-05-13T18:53:17.391Z,3.00
2018-05-13T18:55:45.799Z,3.00
2018-05-13T18:58:14.244Z,2.70
2018-05-13T19:00:42.654Z,2.43
2018-05-13T19:03:11.117Z,2.80
2018-05-13T19:05:39.589Z,2.60
2018-05-13T19:08:08.018Z,2.50
2018-05-13T19:10:36.433Z,2.83
2018-05-13T19:13:04.922Z,2.27
2018-05-13T19:15:33.364Z,2.70
2018-05-13T19:18:01.776Z,2.70
2018-05-13T19:20:30.236Z,2.97
2018-05-13T19:22:58.658Z,2.73
2018-05-13T19:25:27.075Z,3.00
2018-05-13T19:27:55.568Z,2.70
2018-05-13T19:30:23.994Z,2.80
2018-05-13T19:32:52.418Z,3.07
2018-05-13T19:35:20.885Z,3.03
2018-05-13T19:37:49.311Z,3.27
2018-05-13T19:40:17.757Z,3.50
2018-05-13T19:42:46.230Z,3.40
2018-05-13T19:45:14.657Z,3.23
2018-05-13T19:47:43.069Z,3.57
2018-05-13T19:50:11.546Z,3.50
2018-05-13T19:52:40.912Z,3.13
2018-05-13T19:55:09.336Z,3.13
2018-05-13T19:57:37.846Z,3.50
2018-05-13T20:00:06.289Z,3.50
2018-05-13T20:02:34.769Z,3.50
2018-05-13T20:05:03.213Z,3.73
2018-05-13T20:07:31.623Z,3.60
2018-05-13T20:10:00.033Z,3.40
2018-05-13T20:12:28.479Z,3.60
2018-05-13T20:14:56.921Z,4.23
2018-05-13T20:17:25.339Z,3.83
2018-05-13T20:19:53.869Z,3.57
2018-05-13T20:22:22.280Z,3.83
2018-05-13T20:24:50.696Z,3.80
2018-05-13T20:27:19.154Z,3.57
2018-05-13T20:29:47.576Z,4.20
2018-05-13T20:32:16.062Z,4.20
2018-05-13T20:34:44.538Z,4.27
2018-05-13T20:37:12.966Z,4.47
2018-05-13T20:39:41.381Z,4.20
2018-05-13T20:42:09.834Z,4.37
2018-05-13T20:44:38.245Z,4.97
2018-05-13T20:47:06.657Z,4.60
2018-05-13T20:49:35.148Z,4.07
2018-05-13T20:52:03.689Z,4.73
2018-05-13T20:54:32.173Z,4.50
2018-05-13T20:57:00.633Z,4.03
2018-05-13T20:59:29.109Z,4.33
2018-05-13T21:01:57.533Z,5.00
2018-05-13T21:04:26.001Z,4.37
2018-05-13T21:06:54.425Z,4.50
2018-05-13T21:09:22.844Z,4.27
2018-05-13T21:11:51.309Z,4.77
2018-05-13T21:14:19.726Z,4.63
2018-05-13T21:16:48.152Z,4.60
2018-05-13T21:19:16.649Z,5.00
2018-05-13T21:21:45.061Z,4.70
2018-05-13T21:24:13.485Z,4.40
2018-05-13T21:26:41.959Z,4.87
2018-05-13T21:29:10.369Z,4.33
2018-05-13T21:31:38.805Z,4.03
2018-05-13T21:34:07.277Z,3.97
2018-05-13T21:36:35.685Z,4.07
2018-05-13T21:39:04.146Z,4.27
2018-05-13T21:41:32.607Z,4.30
2018-05-13T21:44:01.035Z,4.77
2018-05-13T21:46:29.457Z,6.33
2018-05-13T21:48:57.924Z,6.13
2018-05-13T21:51:26.352Z,6.27
2018-05-13T21:53:54.788Z,7.13
2018-05-13T21:56:23.296Z,5.83
2018-05-13T21:58:51.718Z,6.23
2018-05-13T22:01:20.153Z,6.40
2018-05-13T22:03:48.621Z,6.97
2018-05-13T22:06:17.039Z,7.00
2018-05-13T22:08:45.471Z,6.80
2018-05-13T22:11:13.933Z,6.57
2018-05-13T22:13:42.337Z,6.33
2018-05-13T22:16:10.762Z,6.47
2018-05-13T22:18:39.261Z,6.20
2018-05-13T22:21:07.668Z,6.93
2018-05-13T22:23:36.086Z,6.60
2018-05-13T22:26:04.593Z,6.70
2018-05-13T22:28:33.005Z,7.03
2018-05-13T22:31:01.444Z,7.20
2018-05-13T22:33:29.917Z,6.03
2018-05-13T22:35:58.344Z,6.20
2018-05-13T22:38:26.768Z,5.70
2018-05-13T22:40:55.216Z,6.33
2018-05-13T22:43:23.635Z,6.53
2018-05-13T22:45:52.064Z,6.60
2018-05-13T22:48:20.522Z,6.40
2018-05-13T22:50:48.952Z,6.63
2018-05-13T22:53:17.399Z,5.90
2018-05-13T22:55:45.860Z,5.87
2018-05-13T22:58:14.370Z,5.07
2018-05-13T23:00:42.721Z,5.90
2018-05-13T23:03:11.186Z,5.23
2018-05-13T23:05:39.615Z,6.10
2018-05-13T23:08:08.046Z,5.50
2018-05-13T23:10:36.500Z,6.17
2018-05-13T23:13:04.908Z,6.30
2018-05-13T23:15:33.325Z,5.30
2018-05-13T23:18:01.800Z,6.03
2018-05-13T23:20:30.326Z,5.77
2018-05-13T23:22:58.679Z,5.97
2018-05-13T23:25:27.146Z,5.77
2018-05-13T23:27:55.557Z,5.30
2018-05-13T23:30:23.985Z,5.03
2018-05-13T23:32:52.447Z,5.13
2018-05-13T23:35:20.869Z,5.07
2018-05-13T23:37:49.292Z,5.00
2018-05-13T23:40:17.776Z,5.17
2018-05-13T23:42:46.208Z,5.60
2018-05-13T23:45:14.630Z,5.67
2018-05-13T23:47:43.082Z,5.50
2018-05-13T23:50:11.493Z,5.63
2018-05-13T23:52:39.905Z,5.20
2018-05-13T23:55:08.353Z,6.43
2018-05-13T23:57:36.776Z,5.47
